Time;durP1;ratioP1;P1;durP2;ratioP2;P2;SDS_P1;SDS_P2;PMS_P1;PMS_P2;Temp;Humidity;BMP_temperature;BMP_pressure;BME280_temperature;BME280_humidity;BME280_pressure;Samples;Min_cycle;Max_cycle;Signal;HPM_P1;HPM_P2
2023/09/02 00:02:23;;;;;;;29.27;26.30;;;16.00;99.90;;;;;;5044624;28;20041;-79
2023/09/02 00:04:49;;;;;;;30.45;27.52;;;16.00;99.90;;;;;;5046413;28;20045;-81
2023/09/02 00:07:14;;;;;;;31.67;28.58;;;16.00;99.90;;;;;;5042434;28;20076;-82
2023/09/02 00:09:40;;;;;;;28.85;26.15;;;15.90;99.90;;;;;;5045915;28;20045;-80
2023/09/02 00:12:09;;;;;;;28.80;25.80;;;15.90;99.90;;;;;;5041782;28;20045;-81
2023/09/02 00:14:35;;;;;;;27.83;25.08;;;15.90;99.90;;;;;;5042046;28;20037;-82
2023/09/02 00:17:00;;;;;;;26.02;23.63;;;15.90;99.90;;;;;;5036210;28;20049;-81
2023/09/02 00:19:27;;;;;;;26.50;23.90;;;15.90;99.90;;;;;;5045973;28;20106;-82
2023/09/02 00:21:53;;;;;;;27.02;24.33;;;15.90;99.90;;;;;;5047790;28;20044;-81
2023/09/02 00:24:19;;;;;;;29.40;26.50;;;15.90;99.90;;;;;;5041803;28;20091;-80
2023/09/02 00:26:45;;;;;;;26.60;24.00;;;15.90;99.90;;;;;;5043235;28;20037;-81
2023/09/02 00:29:11;;;;;;;28.20;25.40;;;15.90;99.90;;;;;;5046303;28;20044;-79
2023/09/02 00:31:36;;;;;;;28.33;25.75;;;15.90;99.90;;;;;;5032295;28;20631;-80
2023/09/02 00:34:02;;;;;;;26.92;24.33;;;15.90;99.90;;;;;;5042703;28;20049;-80
2023/09/02 00:36:30;;;;;;;27.15;24.55;;;15.90;99.90;;;;;;5042049;28;20670;-80
2023/09/02 00:38:57;;;;;;;27.48;24.88;;;15.90;99.90;;;;;;5047341;28;20665;-80
2023/09/02 00:41:31;;;;;;;27.23;24.73;;;15.90;99.90;;;;;;5047417;28;20059;-80
2023/09/02 00:43:59;;;;;;;29.13;26.25;;;15.90;99.90;;;;;;5047532;28;20048;-81
2023/09/02 00:46:25;;;;;;;29.10;26.30;;;15.90;99.90;;;;;;5051102;28;20080;-82
2023/09/02 00:48:51;;;;;;;31.13;27.92;;;15.80;99.90;;;;;;5042636;28;20319;-78
2023/09/02 00:51:16;;;;;;;29.90;27.02;;;15.80;99.90;;;;;;5039240;28;20393;-80
2023/09/02 00:53:45;;;;;;;30.08;27.23;;;15.80;99.90;;;;;;5042555;28;20075;-82
2023/09/02 00:56:13;;;;;;;30.60;27.55;;;15.90;99.90;;;;;;5050432;28;20056;-81
2023/09/02 00:58:40;;;;;;;29.08;26.38;;;15.90;99.90;;;;;;5061390;28;20051;-81
2023/09/02 01:01:06;;;;;;;29.23;26.43;;;15.90;99.90;;;;;;5055054;28;20100;-80
2023/09/02 01:03:35;;;;;;;29.05;26.27;;;15.90;99.90;;;;;;5067125;28;20304;-79
2023/09/02 01:06:04;;;;;;;29.50;26.67;;;15.90;99.90;;;;;;5043703;28;20128;-82
2023/09/02 01:08:31;;;;;;;31.10;28.15;;;15.90;99.90;;;;;;5038695;28;20052;-79
2023/09/02 01:11:00;;;;;;;29.57;26.97;;;15.90;99.90;;;;;;5046257;28;20044;-79
2023/09/02 01:13:27;;;;;;;31.48;28.55;;;16.00;99.90;;;;;;5044665;28;20391;-79
2023/09/02 01:15:54;;;;;;;32.60;29.60;;;15.90;99.90;;;;;;5044245;28;20076;-80
2023/09/02 01:18:23;;;;;;;;;;;15.90;99.90;;;;;;5047496;28;20507;-79
2023/09/02 01:21:07;;;;;;;31.42;28.45;;;15.90;99.90;;;;;;5041470;28;20399;-80
2023/09/02 01:23:39;;;;;;;35.20;31.77;;;15.90;99.90;;;;;;5047097;28;20469;-82
2023/09/02 01:26:22;;;;;;;32.17;28.95;;;15.90;99.90;;;;;;5041954;28;20052;-81
2023/09/02 01:28:53;;;;;;;32.70;29.58;;;15.90;99.90;;;;;;5046240;28;20056;-82
2023/09/02 01:31:22;;;;;;;37.10;33.47;;;15.90;99.90;;;;;;5042873;28;20045;-80
2023/09/02 01:33:52;;;;;;;35.30;32.03;;;15.90;99.90;;;;;;5044981;28;20989;-79
2023/09/02 01:36:21;;;;;;;36.38;32.75;;;15.90;99.90;;;;;;5044355;28;20115;-82
2023/09/02 01:38:47;;;;;;;36.90;33.33;;;15.90;99.90;;;;;;5044282;28;20037;-81
2023/09/02 01:41:14;;;;;;;37.58;33.97;;;15.90;99.90;;;;;;5046636;28;20051;-81
2023/09/02 01:43:42;;;;;;;34.03;31.00;;;15.90;99.90;;;;;;5039952;28;20037;-79
2023/09/02 01:46:09;;;;;;;33.58;30.38;;;15.90;99.90;;;;;;5045291;28;20045;-79
2023/09/02 01:48:35;;;;;;;34.72;31.33;;;15.90;99.90;;;;;;5058163;28;20052;-79
2023/09/02 01:51:02;;;;;;;31.58;28.45;;;15.90;99.90;;;;;;5038335;28;20040;-81
2023/09/02 01:53:29;;;;;;;31.00;28.35;;;15.90;99.90;;;;;;5042546;28;20496;-80
2023/09/02 01:55:56;;;;;;;33.83;30.48;;;15.80;99.90;;;;;;5040746;28;20056;-79
2023/09/02 01:58:21;;;;;;;31.85;28.65;;;15.80;99.90;;;;;;5049782;28;20048;-80
2023/09/02 02:00:47;;;;;;;31.88;28.75;;;15.80;99.90;;;;;;5045916;28;20040;-82
2023/09/02 02:03:37;;;;;;;30.05;27.27;;;15.80;99.90;;;;;;5044913;28;20037;-79
2023/09/02 02:06:08;;;;;;;30.77;27.98;;;15.80;99.90;;;;;;5040193;28;20049;-80
2023/09/02 02:08:45;;;;;;;32.55;29.55;;;15.80;99.90;;;;;;5047975;28;20091;-80
2023/09/02 02:11:13;;;;;;;30.88;28.00;;;15.80;99.90;;;;;;5046705;28;20401;-79
2023/09/02 02:13:38;;;;;;;;;;;15.80;99.90;;;;;;5049317;28;20099;-80
2023/09/02 02:16:05;;;;;;;32.78;29.77;;;15.80;99.90;;;;;;5036621;28;20700;-79
2023/09/02 02:18:31;;;;;;;30.95;28.02;;;15.80;99.90;;;;;;5040122;28;20041;-80
2023/09/02 02:21:04;;;;;;;30.27;27.27;;;15.80;99.90;;;;;;5041786;28;21702;-80
2023/09/02 02:23:30;;;;;;;29.08;26.50;;;15.80;99.90;;;;;;5040770;28;20036;-82
2023/09/02 02:26:04;;;;;;;29.50;26.90;;;15.80;99.90;;;;;;5044485;28;20150;-78
2023/09/02 02:28:30;;;;;;;29.73;27.15;;;15.80;99.90;;;;;;5041338;28;20480;-79
2023/09/02 02:30:58;;;;;;;29.65;27.05;;;15.80;99.90;;;;;;5045732;28;20087;-81
2023/09/02 02:33:24;;;;;;;29.00;26.15;;;15.80;99.90;;;;;;5044438;28;20512;-79
2023/09/02 02:35:50;;;;;;;31.85;28.88;;;15.80;99.90;;;;;;5037815;28;20048;-79
2023/09/02 02:38:16;;;;;;;31.58;28.35;;;15.80;99.90;;;;;;5038291;28;20056;-81
2023/09/02 02:40:42;;;;;;;30.38;27.70;;;15.80;99.90;;;;;;5040580;28;20388;-80
2023/09/02 02:43:08;;;;;;;30.58;27.73;;;15.80;99.90;;;;;;5044429;28;20133;-80
2023/09/02 02:45:34;;;;;;;30.10;27.10;;;15.80;99.90;;;;;;5044087;28;20435;-79
2023/09/02 02:47:59;;;;;;;29.25;26.65;;;15.80;99.90;;;;;;5048346;28;20554;-80
2023/09/02 02:50:25;;;;;;;30.15;27.20;;;15.80;99.90;;;;;;5040058;28;20400;-78
2023/09/02 02:52:51;;;;;;;30.42;27.50;;;15.80;99.90;;;;;;5044240;28;20091;-80
2023/09/02 02:55:17;;;;;;;29.65;26.70;;;15.80;99.90;;;;;;5045575;28;20158;-78
2023/09/02 02:57:47;;;;;;;31.17;28.10;;;15.80;99.90;;;;;;5042092;28;20045;-79
2023/09/02 03:00:13;;;;;;;29.75;26.73;;;15.80;99.90;;;;;;5043313;28;20040;-80
2023/09/02 03:02:39;;;;;;;29.42;26.63;;;15.80;99.90;;;;;;5046837;28;20516;-80
2023/09/02 03:05:05;;;;;;;30.67;27.77;;;15.80;99.90;;;;;;5046824;28;20107;-80
2023/09/02 03:07:34;;;;;;;29.55;26.75;;;15.80;99.90;;;;;;5042347;28;20041;-80
2023/09/02 03:09:59;;;;;;;30.70;27.73;;;15.80;99.90;;;;;;5048149;28;20045;-79
2023/09/02 03:12:25;;;;;;;29.02;26.25;;;15.80;99.90;;;;;;5044919;28;20396;-79
2023/09/02 03:14:51;;;;;;;28.02;25.13;;;15.80;99.90;;;;;;5040286;28;20064;-79
2023/09/02 03:17:20;;;;;;;28.38;25.88;;;15.80;99.90;;;;;;5040933;28;20037;-82
2023/09/02 03:19:48;;;;;;;29.40;26.50;;;15.80;99.90;;;;;;5041870;28;20049;-80
2023/09/02 03:22:14;;;;;;;27.17;24.48;;;15.80;99.90;;;;;;5043747;28;20487;-79
2023/09/02 03:24:39;;;;;;;28.60;25.75;;;15.70;99.90;;;;;;5046391;28;20079;-79
2023/09/02 03:27:05;;;;;;;28.33;25.52;;;15.70;99.90;;;;;;5039030;28;20124;-79
2023/09/02 03:29:31;;;;;;;28.50;25.80;;;15.70;99.90;;;;;;5045432;28;20049;-79
2023/09/02 03:31:57;;;;;;;26.92;24.52;;;15.70;99.90;;;;;;5039064;28;20047;-79
2023/09/02 03:34:22;;;;;;;26.88;24.33;;;15.70;99.90;;;;;;5054265;28;20056;-81
2023/09/02 03:36:48;;;;;;;28.70;25.67;;;15.70;99.90;;;;;;5040612;28;20037;-80
2023/09/02 03:39:14;;;;;;;28.55;25.80;;;15.60;99.90;;;;;;5045318;28;20098;-81
2023/09/02 03:41:40;;;;;;;30.45;27.48;;;15.60;99.90;;;;;;5045206;28;20121;-78
2023/09/02 03:44:06;;;;;;;30.77;27.55;;;15.70;99.90;;;;;;5039692;28;20076;-79
2023/09/02 03:46:32;;;;;;;28.65;25.95;;;15.60;99.90;;;;;;5042751;28;20069;-78
2023/09/02 03:48:58;;;;;;;27.70;25.17;;;15.70;99.90;;;;;;5038380;28;20492;-79
2023/09/02 03:51:24;;;;;;;30.85;27.83;;;15.70;99.90;;;;;;5038467;28;20385;-79
2023/09/02 03:53:50;;;;;;;29.92;26.90;;;15.70;99.90;;;;;;5036785;28;20048;-80
2023/09/02 03:56:15;;;;;;;31.17;28.10;;;15.70;99.90;;;;;;5047321;28;20705;-78
2023/09/02 03:58:41;;;;;;;29.83;26.65;;;15.70;99.90;;;;;;5043514;28;20103;-80
2023/09/02 04:01:07;;;;;;;30.60;27.60;;;15.70;99.90;;;;;;5047613;28;20040;-81
2023/09/02 04:03:37;;;;;;;31.55;28.30;;;15.70;99.90;;;;;;5044245;28;20090;-80
2023/09/02 04:06:03;;;;;;;32.90;29.55;;;15.70;99.90;;;;;;5042740;28;20114;-81
2023/09/02 04:08:33;;;;;;;35.47;31.88;;;15.80;99.90;;;;;;5043608;28;20064;-81
2023/09/02 04:11:01;;;;;;;35.40;31.70;;;15.80;99.90;;;;;;5047210;28;20053;-79
2023/09/02 04:13:30;;;;;;;33.47;30.20;;;15.80;99.90;;;;;;5042852;28;20076;-79
2023/09/02 04:16:00;;;;;;;32.50;29.30;;;15.80;99.90;;;;;;5038084;28;20396;-80
2023/09/02 04:18:26;;;;;;;36.40;30.35;;;15.80;99.90;;;;;;5049292;28;20045;-82
2023/09/02 04:20:52;;;;;;;32.20;28.75;;;15.80;99.90;;;;;;5042517;28;20052;-79
2023/09/02 04:23:21;;;;;;;33.63;30.15;;;15.80;99.90;;;;;;5047526;28;20041;-80
2023/09/02 04:25:52;;;;;;;33.30;29.90;;;15.80;99.90;;;;;;5046364;28;20496;-78
2023/09/02 04:28:18;;;;;;;32.05;28.73;;;15.80;99.90;;;;;;5050616;28;20045;-79
2023/09/02 04:30:45;;;;;;;34.20;30.53;;;15.80;99.90;;;;;;5048165;28;20496;-81
2023/09/02 04:33:14;;;;;;;31.52;28.30;;;15.80;99.90;;;;;;5047669;28;20057;-79
2023/09/02 04:35:45;;;;;;;32.45;29.13;;;15.80;99.90;;;;;;5044198;28;20033;-79
2023/09/02 04:38:11;;;;;;;32.13;28.83;;;15.80;99.90;;;;;;5048754;28;20590;-79
2023/09/02 04:40:41;;;;;;;33.95;30.48;;;15.80;99.90;;;;;;5047237;28;20049;-81
2023/09/02 04:43:08;;;;;;;33.00;29.63;;;15.80;99.90;;;;;;5053919;28;20053;-78
2023/09/02 04:45:35;;;;;;;31.63;28.42;;;15.80;99.90;;;;;;5046046;28;20468;-81
2023/09/02 04:48:02;;;;;;;35.10;31.52;;;15.90;99.90;;;;;;5042793;28;20132;-80
2023/09/02 04:50:29;;;;;;;35.20;31.70;;;15.80;99.90;;;;;;5041462;28;20510;-80
2023/09/02 04:52:56;;;;;;;33.20;29.90;;;15.80;99.90;;;;;;5044426;28;20033;-80
2023/09/02 04:55:24;;;;;;;33.78;30.48;;;15.80;99.90;;;;;;5039561;28;20087;-79
2023/09/02 04:57:54;;;;;;;36.22;32.42;;;15.90;99.90;;;;;;5044982;28;20450;-80
2023/09/02 05:00:24;;;;;;;36.15;32.15;;;15.90;99.90;;;;;;5049292;28;20045;-81
2023/09/02 05:02:50;;;;;;;34.70;31.05;;;15.90;99.90;;;;;;5046752;28;20110;-79
2023/09/02 05:05:17;;;;;;;35.83;32.03;;;15.90;99.90;;;;;;5040814;28;20565;-79
2023/09/02 05:07:43;;;;;;;38.03;33.70;;;15.90;99.90;;;;;;5039832;28;20554;-83
2023/09/02 05:10:10;;;;;;;36.30;32.60;;;15.90;99.90;;;;;;5041313;28;20561;-81
2023/09/02 05:12:37;;;;;;;35.35;31.90;;;15.90;99.90;;;;;;5042443;28;20055;-81
2023/09/02 05:15:03;;;;;;;36.35;32.58;;;15.90;99.90;;;;;;5044199;28;20049;-81
2023/09/02 05:17:32;;;;;;;39.95;33.63;;;15.90;99.90;;;;;;5044025;28;20040;-79
2023/09/02 05:19:59;;;;;;;37.53;33.05;;;15.90;99.90;;;;;;5052454;28;20407;-80
2023/09/02 05:22:26;;;;;;;36.78;32.97;;;15.90;99.90;;;;;;5042704;28;20139;-79
2023/09/02 05:24:52;;;;;;;38.13;34.07;;;15.90;99.90;;;;;;5039594;28;20048;-80
2023/09/02 05:27:19;;;;;;;37.63;33.55;;;15.90;99.90;;;;;;5034610;28;20057;-80
2023/09/02 05:29:44;;;;;;;36.97;33.03;;;15.90;99.90;;;;;;5048129;28;20041;-81
2023/09/02 05:32:13;;;;;;;38.08;34.00;;;15.90;99.90;;;;;;5040101;28;20041;-79
2023/09/02 05:34:39;;;;;;;40.65;36.33;;;15.90;99.90;;;;;;5056736;28;20049;-83
2023/09/02 05:37:06;;;;;;;38.50;34.53;;;15.90;99.90;;;;;;5045046;28;20056;-80
2023/09/02 05:39:32;;;;;;;38.58;34.47;;;15.90;99.90;;;;;;5043900;28;20511;-81
2023/09/02 05:41:58;;;;;;;40.50;34.90;;;15.90;99.90;;;;;;5045028;28;20044;-80
2023/09/02 05:44:24;;;;;;;40.03;35.78;;;15.90;99.90;;;;;;5047112;28;20103;-78
2023/09/02 05:46:50;;;;;;;38.88;34.72;;;15.90;99.90;;;;;;5043305;28;20079;-79
2023/09/02 05:49:16;;;;;;;38.92;34.92;;;15.90;99.90;;;;;;5043159;28;20073;-81
2023/09/02 05:51:42;;;;;;;38.75;34.72;;;15.90;99.90;;;;;;5045203;28;20080;-81
2023/09/02 05:54:09;;;;;;;44.00;36.63;;;15.90;99.90;;;;;;5048106;28;20045;-80
2023/09/02 05:56:39;;;;;;;39.20;35.05;;;15.90;99.90;;;;;;5046035;28;20051;-79
2023/09/02 05:59:05;;;;;;;39.85;35.75;;;15.80;99.90;;;;;;5049361;28;20076;-80
2023/09/02 06:01:32;;;;;;;39.70;35.80;;;15.90;99.90;;;;;;5041391;28;20603;-84
2023/09/02 06:03:58;;;;;;;42.60;36.53;;;15.90;99.90;;;;;;5042476;28;20045;-79
2023/09/02 06:06:24;;;;;;;43.80;37.20;;;15.90;99.90;;;;;;5034543;28;20102;-79
2023/09/02 06:08:50;;;;;;;41.50;36.75;;;15.90;99.90;;;;;;5039876;28;20064;-81
2023/09/02 06:11:23;;;;;;;39.13;34.58;;;15.90;99.90;;;;;;5042130;28;20040;-79
2023/09/02 06:13:49;;;;;;;40.67;35.65;;;15.90;99.90;;;;;;5043747;28;20094;-80
2023/09/02 06:16:15;;;;;;;42.38;37.78;;;15.90;99.90;;;;;;5042914;28;20428;-85
2023/09/02 06:18:50;;;;;;;41.92;37.13;;;15.90;99.90;;;;;;5032161;28;20091;-82
2023/09/02 06:21:16;;;;;;;40.65;36.25;;;15.90;99.90;;;;;;5039315;28;20048;-83
2023/09/02 06:23:43;;;;;;;42.28;37.78;;;15.90;99.90;;;;;;5038776;28;20041;-83
2023/09/02 06:26:09;;;;;;;45.53;37.00;;;15.90;99.90;;;;;;5037738;28;20052;-81
2023/09/02 06:28:35;;;;;;;38.97;34.78;;;16.00;99.90;;;;;;5039168;28;20037;-82
2023/09/02 06:31:08;;;;;;;41.10;35.42;;;16.00;99.90;;;;;;5036577;28;20046;-82
2023/09/02 06:33:36;;;;;;;42.08;37.05;;;16.00;99.90;;;;;;5032910;28;20037;-82
2023/09/02 06:36:12;;;;;;;42.47;36.20;;;16.00;99.90;;;;;;5042589;28;20079;-82
2023/09/02 06:38:41;;;;;;;39.53;35.28;;;16.00;99.90;;;;;;5036603;28;20045;-85
2023/09/02 06:41:11;;;;;;;40.92;35.67;;;15.90;99.90;;;;;;5038392;28;20044;-82
2023/09/02 06:43:38;;;;;;;41.25;36.47;;;15.90;99.90;;;;;;5036945;28;20041;-82
2023/09/02 06:46:24;;;;;;;39.08;34.88;;;15.90;99.90;;;;;;5040266;28;20051;-81
2023/09/02 06:48:53;;;;;;;39.83;35.53;;;15.90;99.90;;;;;;5036199;28;20052;-82
2023/09/02 06:51:19;;;;;;;39.65;34.67;;;15.90;99.90;;;;;;5034301;28;20041;-85
2023/09/02 06:53:45;;;;;;;40.53;34.35;;;15.90;99.90;;;;;;5046806;28;20120;-82
2023/09/02 06:56:14;;;;;;;36.83;33.00;;;15.90;99.90;;;;;;5039719;28;20098;-84
2023/09/02 06:58:46;;;;;;;37.15;33.20;;;15.90;99.90;;;;;;5039018;28;20055;-81
2023/09/02 07:01:23;;;;;;;37.85;32.90;;;15.90;99.90;;;;;;5038982;28;20982;-80
2023/09/02 07:03:53;;;;;;;39.83;33.50;;;15.90;99.90;;;;;;5041601;28;20040;-85
2023/09/02 07:06:19;;;;;;;39.25;34.42;;;15.90;99.90;;;;;;5034774;28;20059;-82
2023/09/02 07:08:45;;;;;;;38.47;34.38;;;15.90;99.90;;;;;;5040564;28;20041;-82
2023/09/02 07:11:13;;;;;;;38.92;34.15;;;15.90;99.90;;;;;;5032674;28;20045;-80
2023/09/02 07:13:46;;;;;;;38.95;34.25;;;16.00;99.90;;;;;;5036868;28;20052;-80
2023/09/02 07:16:15;;;;;;;38.80;34.60;;;16.00;99.90;;;;;;5040141;28;20060;-82
2023/09/02 07:18:41;;;;;;;38.10;34.07;;;16.00;99.90;;;;;;5034894;28;20629;-85
2023/09/02 07:21:07;;;;;;;36.95;32.78;;;16.00;99.90;;;;;;5037791;28;20037;-85
2023/09/02 07:23:33;;;;;;;38.60;34.55;;;16.00;99.90;;;;;;5047950;28;20076;-93
2023/09/02 07:26:00;;;;;;;39.22;33.90;;;16.00;99.90;;;;;;5054610;28;20033;-92
2023/09/02 07:28:27;;;;;;;38.65;34.45;;;16.00;99.90;;;;;;5036719;28;20114;-88
2023/09/02 07:30:55;;;;;;;39.22;34.47;;;16.10;99.90;;;;;;5042343;28;20041;-88
2023/09/02 07:33:20;;;;;;;37.22;33.08;;;16.10;99.90;;;;;;5044630;28;20429;-85
2023/09/02 07:35:46;;;;;;;37.30;33.33;;;16.10;99.90;;;;;;5046315;28;20039;-90
2023/09/02 07:38:12;;;;;;;38.05;33.95;;;16.10;99.90;;;;;;5044753;28;20498;-87
2023/09/02 07:40:38;;;;;;;37.15;33.25;;;16.10;99.90;;;;;;5047893;28;20373;-86
2023/09/02 07:43:03;;;;;;;40.60;35.45;;;16.10;99.90;;;;;;5049119;28;20056;-90
2023/09/02 07:45:29;;;;;;;36.58;32.38;;;16.10;99.90;;;;;;5048175;28;20041;-82
2023/09/02 07:47:55;;;;;;;36.90;32.63;;;16.10;99.90;;;;;;5039768;28;20980;-85
2023/09/02 07:50:21;;;;;;;37.88;33.15;;;16.10;99.90;;;;;;5039356;28;20439;-89
2023/09/02 07:52:48;;;;;;;35.47;31.73;;;16.10;99.90;;;;;;5045421;28;20614;-83
2023/09/02 07:55:14;;;;;;;35.13;31.33;;;16.10;99.90;;;;;;5040609;28;20128;-84
2023/09/02 07:57:40;;;;;;;36.63;32.45;;;16.10;99.90;;;;;;5042522;28;20064;-81
2023/09/02 08:00:10;;;;;;;35.63;31.75;;;16.10;99.90;;;;;;5032276;28;20683;-77
2023/09/02 08:02:36;;;;;;;33.53;29.98;;;16.10;99.90;;;;;;5039973;28;20052;-89
2023/09/02 08:05:01;;;;;;;35.83;31.90;;;16.20;99.90;;;;;;5029099;28;20041;-86
2023/09/02 08:07:27;;;;;;;33.83;30.13;;;16.20;99.90;;;;;;5048161;28;20106;-87
2023/09/02 08:09:53;;;;;;;36.20;32.13;;;16.20;99.90;;;;;;5047755;28;20049;-86
2023/09/02 08:12:19;;;;;;;37.67;30.85;;;16.30;99.90;;;;;;5047658;28;20041;-87
2023/09/02 08:14:44;;;;;;;34.38;30.85;;;16.30;99.90;;;;;;5048294;28;20045;-88
2023/09/02 08:17:10;;;;;;;34.70;29.52;;;16.30;99.90;;;;;;5041571;28;20462;-86
2023/09/02 08:19:36;;;;;;;36.53;29.88;;;16.30;99.90;;;;;;5041097;28;20125;-87
2023/09/02 08:22:02;;;;;;;34.75;29.77;;;16.30;99.90;;;;;;5044196;28;20053;-95
2023/09/02 08:24:28;;;;;;;34.22;29.40;;;16.30;99.90;;;;;;5049730;28;20128;-93
2023/09/02 08:26:54;;;;;;;32.38;28.98;;;16.30;99.90;;;;;;5048212;28;20095;-89
2023/09/02 08:29:20;;;;;;;30.80;27.10;;;16.30;99.90;;;;;;5052354;28;20044;-79
2023/09/02 08:31:51;;;;;;;34.67;30.98;;;16.30;99.90;;;;;;5049500;28;20064;-85
2023/09/02 08:34:16;;;;;;;31.58;28.27;;;16.40;99.90;;;;;;5047639;28;20037;-83
2023/09/02 08:36:42;;;;;;;34.08;30.58;;;16.40;99.90;;;;;;5043802;28;20110;-85
2023/09/02 08:39:08;;;;;;;37.03;32.22;;;16.40;99.90;;;;;;5046481;28;20048;-84
2023/09/02 08:41:36;;;;;;;34.50;30.88;;;16.40;99.90;;;;;;5045788;28;20137;-83
2023/09/02 08:44:03;;;;;;;34.58;30.85;;;16.40;99.90;;;;;;5049540;28;20068;-84
2023/09/02 08:46:31;;;;;;;38.80;34.45;;;16.50;99.90;;;;;;5049807;28;20056;-83
2023/09/02 08:48:58;;;;;;;36.60;32.63;;;16.50;99.90;;;;;;5038487;28;20037;-79
2023/09/02 08:51:27;;;;;;;39.83;35.58;;;16.50;99.90;;;;;;5051637;28;20040;-89
2023/09/02 08:53:56;;;;;;;37.20;33.30;;;16.50;99.90;;;;;;5045125;28;20055;-86
2023/09/02 08:56:23;;;;;;;41.42;37.33;;;16.60;99.90;;;;;;5045020;28;20041;-85
2023/09/02 08:58:49;;;;;;;42.70;38.25;;;16.60;99.90;;;;;;5042894;28;20041;-88
2023/09/02 09:01:20;;;;;;;44.53;39.92;;;16.60;99.90;;;;;;5048727;28;20696;-90
2023/09/02 09:03:56;;;;;;;43.90;39.50;;;16.60;99.90;;;;;;5039507;28;20045;-89
2023/09/02 09:06:24;;;;;;;44.03;39.58;;;16.60;99.90;;;;;;5032525;28;20114;-87
2023/09/02 09:08:51;;;;;;;42.40;38.20;;;16.70;99.90;;;;;;5049629;28;20191;-86
2023/09/02 09:11:17;;;;;;;43.17;38.78;;;16.60;99.90;;;;;;5050050;28;20048;-87
2023/09/02 09:13:49;;;;;;;39.83;35.95;;;16.60;99.90;;;;;;5041225;28;20049;-90
2023/09/02 09:16:23;;;;;;;40.38;36.42;;;16.70;99.90;;;;;;5049302;28;20037;-89
2023/09/02 09:18:50;;;;;;;39.95;35.97;;;16.70;99.90;;;;;;5049972;28;20049;-88
2023/09/02 09:21:16;;;;;;;40.33;36.42;;;16.70;99.90;;;;;;5045076;28;20526;-86
2023/09/02 09:23:42;;;;;;;40.80;36.60;;;16.70;99.90;;;;;;5040144;28;20045;-84
2023/09/02 09:26:13;;;;;;;40.30;36.40;;;16.70;99.90;;;;;;5050599;28;20404;-89
2023/09/02 09:28:56;;;;;;;38.25;34.63;;;16.70;99.90;;;;;;5051611;28;20061;-89
2023/09/02 09:31:23;;;;;;;38.75;34.85;;;16.80;99.90;;;;;;5050804;28;20591;-84
2023/09/02 09:33:58;;;;;;;37.20;33.67;;;16.70;99.90;;;;;;5049752;28;20041;-88
2023/09/02 09:36:28;;;;;;;39.15;35.15;;;16.70;99.90;;;;;;5040228;28;20037;-89
2023/09/02 09:38:56;;;;;;;37.30;33.58;;;16.70;99.90;;;;;;5045684;28;20086;-81
2023/09/02 09:41:24;;;;;;;40.03;35.88;;;16.70;99.90;;;;;;5042542;28;20041;-84
2023/09/02 09:44:11;;;;;;;39.75;35.45;;;16.70;99.90;;;;;;5049278;28;20049;-88
2023/09/02 09:46:43;;;;;;;37.03;33.22;;;16.70;99.90;;;;;;5039465;28;20041;-84
2023/09/02 09:49:31;;;;;;;38.00;34.05;;;16.70;99.90;;;;;;5041287;28;20376;-87
2023/09/02 09:52:00;;;;;;;36.80;33.35;;;16.70;99.90;;;;;;5038029;28;20619;-83
2023/09/02 09:54:45;;;;;;;39.92;35.45;;;16.70;99.90;;;;;;5038847;28;20033;-84
2023/09/02 09:57:16;;;;;;;37.90;33.90;;;16.80;99.90;;;;;;5048865;28;20420;-89
2023/09/02 09:59:52;;;;;;;35.78;31.98;;;16.90;99.90;;;;;;5049659;28;20041;-90
2023/09/02 10:02:22;;;;;;;34.45;30.75;;;17.00;99.90;;;;;;5050654;28;20041;-88
2023/09/02 10:05:00;;;;;;;33.22;29.92;;;17.00;99.90;;;;;;5051176;28;20214;-90
2023/09/02 10:07:30;;;;;;;33.30;29.92;;;17.10;99.90;;;;;;5050794;28;20097;-91
2023/09/02 10:10:03;;;;;;;32.88;29.60;;;17.10;99.90;;;;;;5045841;28;20041;-88
2023/09/02 10:12:38;;;;;;;31.10;27.40;;;17.20;99.90;;;;;;5044443;28;20049;-86
2023/09/02 10:15:05;;;;;;;30.05;26.80;;;17.30;99.90;;;;;;5045254;28;20168;-84
2023/09/02 10:17:32;;;;;;;30.55;27.30;;;17.30;99.90;;;;;;5039331;28;20052;-88
2023/09/02 10:19:58;;;;;;;30.33;27.17;;;17.40;99.90;;;;;;5049487;28;20098;-90
2023/09/02 10:22:31;;;;;;;28.83;25.73;;;17.40;99.90;;;;;;5047103;28;20467;-92
2023/09/02 10:25:07;;;;;;;29.95;26.75;;;17.50;99.90;;;;;;5045179;28;20037;-93
2023/09/02 10:27:39;;;;;;;31.00;27.65;;;17.50;99.90;;;;;;5047751;28;20576;-90
2023/09/02 10:30:10;;;;;;;29.23;26.33;;;17.50;99.90;;;;;;5042986;28;20048;-92
2023/09/02 10:32:51;;;;;;;30.70;27.73;;;17.60;99.90;;;;;;5036501;28;20055;-89
2023/09/02 10:35:22;;;;;;;30.35;27.15;;;17.60;99.90;;;;;;5047530;28;20037;-88
2023/09/02 10:37:53;;;;;;;29.52;26.42;;;17.70;99.90;;;;;;5044586;28;20056;-81
2023/09/02 10:40:27;;;;;;;25.65;23.05;;;17.80;99.90;;;;;;5048809;28;20511;-89
2023/09/02 10:42:56;;;;;;;26.75;23.80;;;17.80;99.90;;;;;;5037049;28;20052;-87
2023/09/02 10:45:22;;;;;;;23.67;20.75;;;17.90;99.90;;;;;;5058203;28;20042;-80
2023/09/02 10:47:49;;;;;;;27.25;20.48;;;18.00;99.90;;;;;;5042181;28;20056;-84
2023/09/02 10:50:20;;;;;;;21.70;19.40;;;18.00;99.90;;;;;;5045120;28;20043;-82
2023/09/02 10:52:53;;;;;;;21.63;19.42;;;18.10;99.90;;;;;;5045798;28;20053;-78
2023/09/02 10:55:21;;;;;;;22.25;19.05;;;18.20;99.90;;;;;;5048091;28;20044;-80
2023/09/02 10:57:50;;;;;;;21.42;19.13;;;18.20;99.90;;;;;;5044067;28;20040;-77
2023/09/02 11:00:16;;;;;;;21.20;18.35;;;18.20;99.90;;;;;;5049034;28;20037;-79
2023/09/02 11:02:44;;;;;;;20.08;16.95;;;18.30;99.90;;;;;;5038762;28;20101;-80
2023/09/02 11:05:10;;;;;;;19.95;16.23;;;18.30;99.90;;;;;;5035670;28;20049;-79
2023/09/02 11:07:39;;;;;;;20.25;17.33;;;18.40;99.90;;;;;;5046634;28;20194;-77
2023/09/02 11:10:06;;;;;;;19.50;16.30;;;18.40;99.90;;;;;;5047974;28;20051;-83
2023/09/02 11:12:35;;;;;;;17.35;15.50;;;18.50;99.90;;;;;;5063951;28;20119;-81
2023/09/02 11:15:21;;;;;;;18.08;15.40;;;18.60;99.90;;;;;;5047527;28;20448;-83
2023/09/02 11:17:47;;;;;;;17.80;16.00;;;18.70;99.90;;;;;;5046302;28;20401;-81
2023/09/02 11:20:18;;;;;;;18.45;16.48;;;18.70;99.90;;;;;;5045338;28;20047;-80
2023/09/02 11:22:56;;;;;;;17.65;15.82;;;18.80;99.90;;;;;;5045060;28;20064;-81
2023/09/02 11:25:30;;;;;;;16.17;14.23;;;18.80;99.90;;;;;;5043967;28;20041;-80
2023/09/02 11:28:01;;;;;;;14.85;13.35;;;18.90;99.90;;;;;;5048637;28;20037;-80
2023/09/02 11:30:29;;;;;;;16.02;12.88;;;19.00;99.90;;;;;;5045847;28;20124;-81
2023/09/02 11:32:56;;;;;;;14.48;12.65;;;19.10;99.90;;;;;;5046873;28;20044;-78
2023/09/02 11:35:28;;;;;;;14.27;12.20;;;19.10;99.90;;;;;;5043051;28;20041;-76
2023/09/02 11:37:55;;;;;;;15.20;12.85;;;19.20;99.90;;;;;;5044488;28;20041;-78
2023/09/02 11:40:24;;;;;;;15.98;13.18;;;19.30;99.90;;;;;;5045398;28;20660;-77
2023/09/02 11:43:00;;;;;;;17.73;15.27;;;19.40;99.90;;;;;;5034128;28;20136;-80
2023/09/02 11:45:29;;;;;;;17.02;13.63;;;19.40;99.90;;;;;;5047465;28;20049;-79
2023/09/02 11:47:55;;;;;;;16.02;13.10;;;19.50;99.90;;;;;;5043470;28;20041;-80
2023/09/02 11:50:22;;;;;;;13.80;12.15;;;19.60;99.90;;;;;;5033934;28;20041;-79
2023/09/02 11:52:58;;;;;;;15.55;13.30;;;19.70;99.90;;;;;;5045831;28;20060;-79
2023/09/02 11:55:25;;;;;;;16.67;13.93;;;19.70;99.90;;;;;;5048616;28;20048;-78
2023/09/02 11:57:52;;;;;;;16.10;14.43;;;19.70;99.90;;;;;;5039799;28;20063;-78
2023/09/02 12:00:23;;;;;;;17.27;15.52;;;19.70;99.90;;;;;;5041270;28;20060;-79
2023/09/02 12:02:50;;;;;;;17.73;15.80;;;19.80;99.90;;;;;;5039835;28;20048;-79
2023/09/02 12:05:16;;;;;;;17.92;15.98;;;19.90;99.90;;;;;;5045306;28;20041;-78
2023/09/02 12:07:46;;;;;;;17.38;15.57;;;20.10;99.90;;;;;;5048020;28;20049;-78
2023/09/02 12:10:17;;;;;;;16.92;15.23;;;20.30;99.90;;;;;;5034907;28;20073;-79
2023/09/02 12:12:44;;;;;;;17.77;14.48;;;20.40;99.90;;;;;;5048797;28;20052;-79
2023/09/02 12:15:19;;;;;;;14.60;13.13;;;20.50;99.90;;;;;;5050200;28;20428;-78
2023/09/02 12:17:47;;;;;;;15.40;13.77;;;20.50;99.90;;;;;;5046200;28;20048;-77
2023/09/02 12:20:15;;;;;;;15.35;13.70;;;20.50;99.90;;;;;;5047503;28;20048;-76
2023/09/02 12:22:43;;;;;;;17.00;14.40;;;20.50;99.90;;;;;;5049036;28;21109;-79
2023/09/02 12:25:22;;;;;;;16.48;14.80;;;20.60;99.90;;;;;;5047124;28;20487;-79
2023/09/02 12:27:48;;;;;;;15.52;13.85;;;20.60;99.90;;;;;;5047463;28;20256;-79
2023/09/02 12:30:30;;;;;;;15.10;12.52;;;20.60;99.90;;;;;;5047142;28;20459;-77
2023/09/02 12:32:57;;;;;;;14.75;12.27;;;20.60;99.90;;;;;;5049657;28;20436;-76
2023/09/02 12:35:23;;;;;;;14.90;12.10;;;20.70;99.90;;;;;;5042773;28;20488;-78